Time;durP1;ratioP1;P1;durP2;ratioP2;P2;SDS_P1;SDS_P2;PMS_P1;PMS_P2;Temp;Humidity;BMP_temperature;BMP_pressure;BME280_temperature;BME280_humidity;BME280_pressure;Samples;Min_cycle;Max_cycle;Signal;HPM_P1;HPM_P2
2021/10/26 00:01:18;;;;;;;11.97;7.27;;;7.50;99.90;;;;;;4194525;28;21040;-78
2021/10/26 00:03:20;;;;;;;14.47;7.70;;;7.50;99.90;;;;;;4194749;28;20467;-78
2021/10/26 00:05:22;;;;;;;12.97;6.90;;;7.50;99.90;;;;;;4189142;28;20879;-77
2021/10/26 00:07:24;;;;;;;9.77;6.97;;;7.50;99.90;;;;;;4156016;28;20459;-77
2021/10/26 00:09:25;;;;;;;10.50;6.07;;;7.40;99.90;;;;;;4150452;28;20931;-76
2021/10/26 00:11:27;;;;;;;11.60;6.90;;;7.40;99.90;;;;;;4177031;28;20926;-77
2021/10/26 00:13:29;;;;;;;12.33;6.17;;;7.40;99.90;;;;;;4173139;28;20456;-77
2021/10/26 00:15:31;;;;;;;11.63;6.63;;;7.40;99.90;;;;;;4160959;28;20461;-77
2021/10/26 00:17:34;;;;;;;10.53;6.63;;;7.40;99.90;;;;;;4148720;28;20468;-77
2021/10/26 00:19:35;;;;;;;11.50;6.27;;;7.40;99.90;;;;;;4149252;28;20487;-76
2021/10/26 00:21:37;;;;;;;8.67;5.83;;;7.40;99.90;;;;;;4159174;28;21498;-76
2021/10/26 00:23:39;;;;;;;11.37;6.50;;;7.40;99.90;;;;;;4163406;28;20469;-76
2021/10/26 00:25:43;;;;;;;10.93;5.93;;;7.30;99.90;;;;;;4168030;28;20478;-77
2021/10/26 00:27:44;;;;;;;14.13;7.77;;;7.30;99.90;;;;;;4171718;28;20859;-77
2021/10/26 00:29:46;;;;;;;14.23;7.20;;;7.30;99.90;;;;;;4170768;28;20452;-78
2021/10/26 00:31:48;;;;;;;10.50;6.00;;;7.30;99.90;;;;;;4166116;28;20510;-78
2021/10/26 00:33:51;;;;;;;12.30;6.90;;;7.30;99.90;;;;;;4163757;28;20477;-77
2021/10/26 00:35:53;;;;;;;12.43;6.67;;;7.30;99.90;;;;;;4171201;28;20470;-78
2021/10/26 00:37:55;;;;;;;10.63;6.67;;;7.30;99.90;;;;;;4174176;28;20478;-78
2021/10/26 00:39:57;;;;;;;11.47;6.30;;;7.30;99.90;;;;;;4171076;28;20496;-77
2021/10/26 00:42:00;;;;;;;9.77;6.50;;;7.30;99.90;;;;;;4165805;28;20487;-78
2021/10/26 00:44:02;;;;;;;10.87;6.50;;;7.20;99.90;;;;;;4163142;28;20462;-77
2021/10/26 00:46:04;;;;;;;9.93;6.33;;;7.20;99.90;;;;;;4165863;28;20694;-78
2021/10/26 00:48:06;;;;;;;11.17;6.33;;;7.20;99.90;;;;;;4165081;28;21007;-77
2021/10/26 00:50:09;;;;;;;10.73;5.90;;;7.20;99.90;;;;;;4167939;28;20559;-77
2021/10/26 00:52:12;;;;;;;11.33;6.67;;;7.10;99.90;;;;;;4168508;28;21073;-77
2021/10/26 00:54:14;;;;;;;10.03;6.30;;;7.10;99.90;;;;;;4164826;28;20470;-78
2021/10/26 00:56:16;;;;;;;11.13;6.33;;;7.10;99.90;;;;;;4163804;28;20468;-77
2021/10/26 00:58:19;;;;;;;10.30;5.90;;;7.10;99.90;;;;;;4150254;28;20468;-77
2021/10/26 01:00:21;;;;;;;8.90;5.87;;;7.00;99.90;;;;;;4180817;28;20495;-77
2021/10/26 01:02:23;;;;;;;8.33;5.57;;;7.00;99.90;;;;;;4175901;28;20944;-77
2021/10/26 01:04:25;;;;;;;10.23;6.07;;;7.00;99.90;;;;;;4165686;28;20462;-76
2021/10/26 01:06:28;;;;;;;11.33;6.27;;;7.00;99.90;;;;;;4160208;28;20542;-77
2021/10/26 01:08:31;;;;;;;11.67;6.03;;;7.00;99.90;;;;;;4168707;28;20443;-77
2021/10/26 01:10:34;;;;;;;11.33;6.97;;;7.00;99.90;;;;;;4170014;28;20457;-77
2021/10/26 01:12:37;;;;;;;10.33;5.90;;;6.90;99.90;;;;;;4164592;28;20572;-77
2021/10/26 01:14:39;;;;;;;10.80;6.23;;;6.90;99.90;;;;;;4165056;28;20512;-77
2021/10/26 01:16:41;;;;;;;10.87;6.20;;;6.90;99.90;;;;;;4158913;28;20472;-78
2021/10/26 01:18:42;;;;;;;10.07;6.17;;;6.90;99.90;;;;;;4164280;28;20509;-77
2021/10/26 01:20:46;;;;;;;10.80;6.30;;;6.90;99.90;;;;;;4163137;28;20492;-77
2021/10/26 01:22:47;;;;;;;11.70;6.80;;;6.90;99.90;;;;;;4167239;28;20472;-77
2021/10/26 01:24:50;;;;;;;11.87;6.03;;;6.80;99.90;;;;;;4163770;28;20986;-77
2021/10/26 01:26:51;;;;;;;11.30;6.10;;;6.80;99.90;;;;;;4164094;28;20443;-77
2021/10/26 01:28:54;;;;;;;11.43;6.67;;;6.90;99.90;;;;;;4163523;28;20504;-77
2021/10/26 01:30:56;;;;;;;11.10;5.97;;;6.80;99.90;;;;;;4164598;28;20508;-78
2021/10/26 01:32:58;;;;;;;13.40;6.40;;;6.80;99.90;;;;;;4158974;28;20532;-77
2021/10/26 01:35:00;;;;;;;10.23;5.83;;;6.80;99.90;;;;;;4163693;28;20454;-78
2021/10/26 01:37:05;;;;;;;9.53;5.90;;;6.80;99.90;;;;;;4164732;28;20512;-77
2021/10/26 01:39:06;;;;;;;13.70;6.50;;;6.80;99.90;;;;;;4172827;28;20470;-78
2021/10/26 01:41:08;;;;;;;10.63;6.20;;;6.80;99.90;;;;;;4174164;28;21080;-78
2021/10/26 01:43:10;;;;;;;11.20;6.33;;;6.80;99.90;;;;;;4180365;28;20512;-78
2021/10/26 01:45:12;;;;;;;9.93;5.93;;;6.80;99.90;;;;;;4179867;28;20469;-78
2021/10/26 01:47:14;;;;;;;10.90;6.07;;;6.80;99.90;;;;;;4180439;28;20446;-77
2021/10/26 01:49:17;;;;;;;13.93;7.13;;;6.70;99.90;;;;;;4162217;28;20470;-78
2021/10/26 01:51:19;;;;;;;13.07;6.90;;;6.80;99.90;;;;;;4162853;28;20493;-77
2021/10/26 01:53:22;;;;;;;10.63;6.70;;;6.80;99.90;;;;;;4163785;28;20552;-77
2021/10/26 01:55:24;;;;;;;15.83;7.23;;;6.70;99.90;;;;;;4163337;28;20462;-77
2021/10/26 01:57:27;;;;;;;9.90;6.20;;;6.70;99.90;;;;;;4160646;28;20470;-77
2021/10/26 01:59:29;;;;;;;14.63;6.37;;;6.70;99.90;;;;;;4165437;28;20546;-77
2021/10/26 02:01:31;;;;;;;11.83;6.70;;;6.80;99.90;;;;;;4172320;28;20478;-77
2021/10/26 02:03:33;;;;;;;11.03;7.13;;;6.70;99.90;;;;;;4179562;28;20466;-77
2021/10/26 02:05:35;;;;;;;14.77;7.30;;;6.70;99.90;;;;;;4170586;28;20565;-78
2021/10/26 02:07:36;;;;;;;13.60;7.13;;;6.70;99.90;;;;;;4163363;28;20477;-77
2021/10/26 02:09:39;;;;;;;11.67;6.53;;;6.70;99.90;;;;;;4177905;28;20443;-78
2021/10/26 02:11:41;;;;;;;10.97;7.13;;;6.70;99.90;;;;;;4177881;28;20492;-77
2021/10/26 02:13:43;;;;;;;11.90;6.47;;;6.70;99.90;;;;;;4174056;28;20513;-77
2021/10/26 02:15:45;;;;;;;11.07;6.97;;;6.70;99.90;;;;;;4175938;28;20486;-78
2021/10/26 02:17:46;;;;;;;13.13;6.90;;;6.70;99.90;;;;;;4174608;28;20465;-78
2021/10/26 02:19:48;;;;;;;11.37;6.90;;;6.70;99.90;;;;;;4179405;28;20490;-78
2021/10/26 02:21:50;;;;;;;13.23;6.80;;;6.70;99.90;;;;;;4180495;28;20481;-77
2021/10/26 02:23:52;;;;;;;13.00;6.60;;;6.70;99.90;;;;;;4177456;28;20963;-77
2021/10/26 02:25:55;;;;;;;11.03;6.30;;;6.70;99.90;;;;;;4168866;28;20876;-77
2021/10/26 02:27:56;;;;;;;10.60;6.93;;;6.70;99.90;;;;;;4162983;28;20774;-77
2021/10/26 02:29:58;;;;;;;12.20;6.10;;;6.60;99.90;;;;;;4163008;28;20524;-77
2021/10/26 02:32:00;;;;;;;12.50;6.87;;;6.60;99.90;;;;;;4163691;28;20487;-77
2021/10/26 02:34:01;;;;;;;11.63;6.60;;;6.60;99.90;;;;;;4157758;28;20470;-77
2021/10/26 02:36:04;;;;;;;11.03;6.93;;;6.60;99.90;;;;;;4162719;28;20485;-78
2021/10/26 02:38:06;;;;;;;12.37;6.37;;;6.60;99.90;;;;;;4168967;28;20942;-78
2021/10/26 02:40:09;;;;;;;12.53;6.73;;;6.60;99.90;;;;;;4168556;28;20581;-77
2021/10/26 02:42:12;;;;;;;10.47;6.30;;;6.60;99.90;;;;;;4162957;28;20486;-77
2021/10/26 02:44:14;;;;;;;13.53;6.93;;;6.70;99.90;;;;;;4168154;28;20472;-77
2021/10/26 02:46:16;;;;;;;13.47;6.97;;;6.70;99.90;;;;;;4172789;28;20849;-77
2021/10/26 02:48:17;;;;;;;10.83;6.63;;;6.70;99.90;;;;;;4179568;28;20506;-78
2021/10/26 02:50:19;;;;;;;13.43;7.23;;;6.70;99.90;;;;;;4166680;28;20544;-76
2021/10/26 02:52:21;;;;;;;17.83;7.73;;;6.70;99.90;;;;;;4148331;28;20497;-77
2021/10/26 02:54:23;;;;;;;12.90;7.00;;;6.70;99.90;;;;;;4172785;28;20554;-77
2021/10/26 02:56:25;;;;;;;11.20;6.97;;;6.70;99.90;;;;;;4163878;28;20540;-77
2021/10/26 02:58:28;;;;;;;9.83;6.00;;;6.70;99.90;;;;;;4158489;28;20507;-77
2021/10/26 03:00:29;;;;;;;11.83;6.40;;;6.70;99.90;;;;;;4171105;28;20544;-78
2021/10/26 03:02:31;;;;;;;11.23;6.23;;;6.80;99.90;;;;;;4173109;28;20981;-76
2021/10/26 03:04:33;;;;;;;13.97;7.13;;;6.80;99.90;;;;;;4177225;28;20896;-76
2021/10/26 03:06:34;;;;;;;11.57;6.30;;;6.80;99.90;;;;;;4167066;28;20471;-77
2021/10/26 03:08:36;;;;;;;11.40;6.17;;;6.80;99.90;;;;;;4166110;28;20496;-77
2021/10/26 03:10:38;;;;;;;13.00;7.13;;;6.80;99.90;;;;;;4170195;28;21013;-77
2021/10/26 03:12:40;;;;;;;10.63;6.60;;;6.90;99.90;;;;;;4175535;28;20583;-76
2021/10/26 03:14:43;;;;;;;10.20;6.77;;;6.90;99.90;;;;;;4161655;28;20475;-76
2021/10/26 03:16:44;;;;;;;10.63;7.07;;;6.90;99.90;;;;;;4155977;28;20967;-77
2021/10/26 03:18:46;;;;;;;13.67;7.37;;;6.90;99.90;;;;;;4163827;28;20959;-77
2021/10/26 03:20:48;;;;;;;12.30;6.27;;;6.90;99.90;;;;;;4165263;28;20510;-77
2021/10/26 03:22:50;;;;;;;12.37;6.97;;;6.90;99.90;;;;;;4167031;28;20474;-76
2021/10/26 03:24:53;;;;;;;11.47;7.07;;;7.00;99.90;;;;;;4159135;28;20476;-76
2021/10/26 03:26:55;;;;;;;11.63;6.73;;;7.00;99.90;;;;;;4149946;28;20456;-76
2021/10/26 03:28:57;;;;;;;11.53;7.23;;;7.00;99.90;;;;;;4163502;28;20480;-77
2021/10/26 03:31:01;;;;;;;10.90;6.80;;;7.00;99.90;;;;;;4169018;28;20457;-78
2021/10/26 03:33:03;;;;;;;15.50;7.10;;;7.10;99.90;;;;;;4178998;28;20478;-77
2021/10/26 03:35:05;;;;;;;12.43;7.40;;;7.10;99.90;;;;;;4168229;28;20508;-77
2021/10/26 03:37:08;;;;;;;13.27;7.67;;;7.20;99.90;;;;;;4175487;28;20829;-77
2021/10/26 03:39:10;;;;;;;10.87;6.50;;;7.20;99.90;;;;;;4176173;28;20908;-76
2021/10/26 03:41:12;;;;;;;11.10;6.43;;;7.20;99.90;;;;;;4156601;28;20575;-77
2021/10/26 03:43:14;;;;;;;11.67;6.60;;;7.20;99.90;;;;;;4148966;28;20897;-76
2021/10/26 03:45:15;;;;;;;11.27;7.07;;;7.30;99.90;;;;;;4167139;28;20511;-77
2021/10/26 03:47:19;;;;;;;10.50;6.50;;;7.30;99.90;;;;;;4166523;28;20446;-77
2021/10/26 03:49:20;;;;;;;13.37;7.57;;;7.30;99.90;;;;;;4164278;28;20820;-76
2021/10/26 03:51:22;;;;;;;11.80;7.17;;;7.30;99.90;;;;;;4177965;28;20532;-76
2021/10/26 03:53:24;;;;;;;10.90;6.93;;;7.40;99.90;;;;;;4169974;28;20537;-76
2021/10/26 03:55:26;;;;;;;14.50;7.10;;;7.40;99.90;;;;;;4164779;28;20506;-77
2021/10/26 03:57:28;;;;;;;10.83;6.77;;;7.40;99.90;;;;;;4162564;28;20578;-77
2021/10/26 03:59:30;;;;;;;12.77;6.93;;;7.40;99.90;;;;;;4163750;28;20501;-77
2021/10/26 04:01:33;;;;;;;11.30;6.87;;;7.40;99.90;;;;;;4164650;28;20509;-77
2021/10/26 04:03:36;;;;;;;10.40;5.73;;;7.50;99.90;;;;;;4165108;28;20466;-77
2021/10/26 04:05:43;;;;;;;9.43;6.40;;;7.50;99.90;;;;;;4164987;28;21019;-76
2021/10/26 04:07:50;;;;;;;16.33;6.83;;;7.50;99.90;;;;;;4155742;28;20508;-76
2021/10/26 04:09:56;;;;;;;11.93;6.87;;;7.50;99.90;;;;;;4161869;28;20478;-77
2021/10/26 04:12:17;;;;;;;11.63;6.70;;;7.50;99.90;;;;;;4166161;28;20526;-78
2021/10/26 04:14:19;;;;;;;11.47;6.73;;;7.50;99.90;;;;;;4165811;28;20963;-76
2021/10/26 04:16:21;;;;;;;14.37;7.33;;;7.60;99.90;;;;;;4162526;28;20473;-76
2021/10/26 04:18:23;;;;;;;13.40;7.17;;;7.60;99.90;;;;;;4164827;28;20472;-77
2021/10/26 04:20:26;;;;;;;13.27;7.53;;;7.60;99.90;;;;;;4165013;28;20498;-76
2021/10/26 04:22:28;;;;;;;13.97;7.40;;;7.60;99.90;;;;;;4165561;28;20507;-76
2021/10/26 04:24:30;;;;;;;12.30;7.27;;;7.60;99.90;;;;;;4161531;28;20996;-77
2021/10/26 04:26:32;;;;;;;12.17;7.33;;;7.60;99.90;;;;;;4160584;28;21013;-78
2021/10/26 04:28:34;;;;;;;12.30;6.50;;;7.60;99.90;;;;;;4164584;28;20506;-76
2021/10/26 04:30:37;;;;;;;10.67;6.47;;;7.60;99.90;;;;;;4179438;28;20474;-77
2021/10/26 04:32:39;;;;;;;11.50;6.97;;;7.70;99.90;;;;;;4178771;28;20495;-77
2021/10/26 04:34:41;;;;;;;13.43;6.60;;;7.70;99.90;;;;;;4180835;28;20558;-77
2021/10/26 04:36:44;;;;;;;10.67;6.43;;;7.70;99.90;;;;;;4150073;28;20478;-77
2021/10/26 04:38:45;;;;;;;15.53;7.13;;;7.70;99.90;;;;;;4162653;28;20503;-77
2021/10/26 04:40:48;;;;;;;15.40;7.10;;;7.70;99.90;;;;;;4164978;28;20501;-76
2021/10/26 04:42:50;;;;;;;12.43;6.80;;;7.70;99.90;;;;;;4181914;28;20475;-79
2021/10/26 04:44:52;;;;;;;11.20;7.00;;;7.70;99.90;;;;;;4171731;28;20472;-78
2021/10/26 04:46:54;;;;;;;14.03;7.17;;;7.70;99.90;;;;;;4161000;28;20481;-79
2021/10/26 04:48:55;;;;;;;11.00;6.87;;;7.80;99.90;;;;;;4163141;28;20472;-78
2021/10/26 04:50:57;;;;;;;12.70;6.80;;;7.80;99.90;;;;;;4166022;28;20465;-79
2021/10/26 04:53:00;;;;;;;11.73;6.87;;;7.80;99.90;;;;;;4165095;28;20457;-79
2021/10/26 04:55:02;;;;;;;13.17;6.40;;;7.80;99.90;;;;;;4163897;28;20472;-78
2021/10/26 04:57:04;;;;;;;11.03;6.07;;;7.80;99.90;;;;;;4168566;28;20500;-78
2021/10/26 04:59:06;;;;;;;10.13;6.30;;;7.80;99.90;;;;;;4178357;28;20478;-79
2021/10/26 05:01:08;;;;;;;10.40;6.50;;;7.80;99.90;;;;;;4176040;28;20492;-78
2021/10/26 05:03:09;;;;;;;10.93;7.30;;;7.80;99.90;;;;;;4169325;28;20475;-78
2021/10/26 05:05:11;;;;;;;10.53;6.47;;;7.80;99.90;;;;;;4167556;28;20532;-78
2021/10/26 05:07:14;;;;;;;12.23;6.90;;;7.80;99.90;;;;;;4167196;28;20478;-79
2021/10/26 05:09:17;;;;;;;11.57;6.53;;;7.80;99.90;;;;;;4165109;28;20465;-78
2021/10/26 05:11:18;;;;;;;10.57;6.53;;;7.80;99.90;;;;;;4166736;28;20523;-78
2021/10/26 05:13:20;;;;;;;12.63;7.57;;;7.80;99.90;;;;;;4164880;28;21014;-77
2021/10/26 05:15:22;;;;;;;10.77;6.33;;;7.80;99.90;;;;;;4167314;28;20929;-77
2021/10/26 05:17:24;;;;;;;11.87;6.30;;;7.80;99.90;;;;;;4160667;28;20518;-77
2021/10/26 05:19:28;;;;;;;14.70;7.67;;;7.80;99.90;;;;;;4162423;28;20487;-77
2021/10/26 05:21:29;;;;;;;12.77;7.20;;;7.80;99.90;;;;;;4161325;28;20508;-78
2021/10/26 05:23:31;;;;;;;10.60;7.07;;;7.80;99.90;;;;;;4162812;28;20465;-78
2021/10/26 05:25:34;;;;;;;13.27;8.07;;;7.80;99.90;;;;;;4155401;28;20852;-79
2021/10/26 05:27:38;;;;;;;11.43;7.23;;;7.80;99.90;;;;;;4162924;28;20459;-78
2021/10/26 05:29:41;;;;;;;16.27;7.90;;;7.80;99.90;;;;;;4161458;28;20469;-78
2021/10/26 05:31:42;;;;;;;12.03;7.00;;;7.80;99.90;;;;;;4167261;28;21064;-78
2021/10/26 05:33:45;;;;;;;13.87;7.10;;;7.80;99.90;;;;;;4174776;28;20512;-78
2021/10/26 05:35:46;;;;;;;12.50;7.00;;;7.80;99.90;;;;;;4164902;28;20476;-80
2021/10/26 05:37:48;;;;;;;10.83;6.67;;;7.70;99.90;;;;;;4163867;28;20453;-79
2021/10/26 05:39:50;;;;;;;12.90;7.20;;;7.90;99.90;;;;;;4166093;28;20464;-77
2021/10/26 05:41:53;;;;;;;11.70;7.00;;;7.90;99.90;;;;;;4165718;28;20508;-78
2021/10/26 05:43:55;;;;;;;10.30;6.63;;;7.90;99.90;;;;;;4177592;28;20489;-78
2021/10/26 05:45:57;;;;;;;10.47;6.73;;;7.90;99.90;;;;;;4167152;28;20466;-79
2021/10/26 05:47:59;;;;;;;9.67;6.10;;;7.90;99.90;;;;;;4169091;28;20462;-78
2021/10/26 05:50:01;;;;;;;11.77;6.33;;;7.90;99.90;;;;;;4174595;28;20478;-78
2021/10/26 05:52:03;;;;;;;10.83;6.53;;;7.90;99.90;;;;;;4158516;28;20505;-79
2021/10/26 05:54:05;;;;;;;11.17;6.50;;;7.90;99.90;;;;;;4168783;28;20484;-78
2021/10/26 05:56:06;;;;;;;9.70;6.07;;;8.00;99.90;;;;;;4162432;28;20559;-79
2021/10/26 05:58:11;;;;;;;10.77;6.00;;;8.00;99.90;;;;;;4160206;28;20474;-79
2021/10/26 06:00:14;;;;;;;9.70;6.67;;;8.00;99.90;;;;;;4161632;28;20462;-78
2021/10/26 06:02:16;;;;;;;14.80;7.17;;;8.00;99.90;;;;;;4161972;28;20500;-79
2021/10/26 06:04:18;;;;;;;11.13;6.83;;;8.00;99.90;;;;;;4149136;28;20462;-78
2021/10/26 06:06:19;;;;;;;12.97;7.63;;;8.00;99.90;;;;;;4168456;28;20851;-78
2021/10/26 06:08:21;;;;;;;12.60;7.50;;;8.00;99.90;;;;;;4156589;28;20492;-78
2021/10/26 06:10:23;;;;;;;11.93;7.27;;;8.00;99.90;;;;;;4160516;28;20661;-78
2021/10/26 06:12:29;;;;;;;13.50;7.73;;;8.00;99.90;;;;;;4165082;28;20515;-78
2021/10/26 06:14:32;;;;;;;13.40;8.00;;;8.00;99.90;;;;;;4158203;28;20523;-78
2021/10/26 06:16:36;;;;;;;13.47;7.50;;;8.10;99.90;;;;;;4158058;28;20627;-79
2021/10/26 06:18:38;;;;;;;14.53;8.10;;;8.10;99.90;;;;;;4162889;28;20552;-79
2021/10/26 06:20:39;;;;;;;13.90;7.77;;;8.10;99.90;;;;;;4162711;28;20461;-79
2021/10/26 06:22:41;;;;;;;14.20;7.73;;;8.10;99.90;;;;;;4162256;28;20652;-79
2021/10/26 06:24:46;;;;;;;16.10;7.73;;;8.10;99.90;;;;;;4168669;28;20468;-79
2021/10/26 06:26:47;;;;;;;11.83;7.70;;;8.20;99.90;;;;;;4163206;28;21048;-79
2021/10/26 06:28:49;;;;;;;13.10;7.70;;;8.20;99.90;;;;;;4162291;28;21006;-79
2021/10/26 06:30:53;;;;;;;13.57;7.67;;;8.20;99.90;;;;;;4162618;28;20516;-80
2021/10/26 06:32:54;;;;;;;17.10;8.27;;;8.30;99.90;;;;;;4151732;28;20891;-79
2021/10/26 06:34:56;;;;;;;13.63;7.97;;;8.30;99.90;;;;;;4151085;28;20472;-79
2021/10/26 06:36:58;;;;;;;11.37;7.40;;;8.30;99.90;;;;;;4162263;28;21024;-78
2021/10/26 06:39:00;;;;;;;12.47;7.30;;;8.30;99.90;;;;;;4170437;28;20453;-79
2021/10/26 06:41:01;;;;;;;15.40;8.43;;;8.30;99.90;;;;;;4171310;28;20460;-79
2021/10/26 06:43:04;;;;;;;13.63;7.70;;;8.40;99.90;;;;;;4147328;28;20509;-79
2021/10/26 06:45:06;;;;;;;14.20;8.03;;;8.40;99.90;;;;;;4161088;28;20524;-80
2021/10/26 06:47:09;;;;;;;14.30;8.00;;;8.40;99.90;;;;;;4166770;28;20476;-79
2021/10/26 06:49:11;;;;;;;13.60;7.60;;;8.40;99.90;;;;;;4169579;28;20453;-79
2021/10/26 06:51:13;;;;;;;17.33;9.50;;;8.40;99.90;;;;;;4151454;28;20490;-78
2021/10/26 06:53:14;;;;;;;14.30;8.80;;;8.50;99.90;;;;;;4163174;28;20541;-78
2021/10/26 06:55:18;;;;;;;14.87;8.77;;;8.50;99.90;;;;;;4166336;28;20472;-79
2021/10/26 06:57:21;;;;;;;16.93;8.60;;;8.60;99.90;;;;;;4158534;28;20556;-78
2021/10/26 06:59:23;;;;;;;15.40;8.67;;;8.60;99.90;;;;;;4163897;28;20473;-80
2021/10/26 07:01:24;;;;;;;13.67;8.17;;;8.60;99.90;;;;;;4167875;28;20497;-79
2021/10/26 07:03:28;;;;;;;16.03;8.50;;;8.60;99.90;;;;;;4171645;28;20599;-80
2021/10/26 07:05:31;;;;;;;16.60;8.83;;;8.70;99.90;;;;;;4162040;28;20561;-79
2021/10/26 07:07:33;;;;;;;14.47;8.53;;;8.90;99.90;;;;;;4167684;28;20470;-78
2021/10/26 07:09:34;;;;;;;16.87;9.37;;;8.70;99.90;;;;;;4171242;28;20543;-78
2021/10/26 07:11:36;;;;;;;15.77;8.87;;;8.80;99.90;;;;;;4171980;28;20557;-79
2021/10/26 07:13:39;;;;;;;16.33;8.03;;;8.80;99.90;;;;;;4165206;28;22162;-79
2021/10/26 07:15:42;;;;;;;15.87;8.97;;;8.90;99.90;;;;;;4178006;28;20461;-78
2021/10/26 07:17:44;;;;;;;14.07;8.33;;;8.90;99.90;;;;;;4174625;28;20510;-78
2021/10/26 07:19:47;;;;;;;14.80;8.43;;;8.90;99.90;;;;;;4176166;28;21055;-78
2021/10/26 07:21:49;;;;;;;16.87;8.57;;;9.00;99.90;;;;;;4157357;28;20509;-79
2021/10/26 07:23:50;;;;;;;15.70;8.93;;;9.00;99.90;;;;;;4173161;28;21306;-78
2021/10/26 07:25:53;;;;;;;16.37;8.77;;;9.10;99.90;;;;;;4193865;28;20510;-78
2021/10/26 07:27:58;;;;;;;21.90;11.17;;;9.10;99.90;;;;;;4181012;28;20466;-78
2021/10/26 07:30:01;;;;;;;19.63;10.40;;;9.10;99.90;;;;;;4164949;28;20469;-78
2021/10/26 07:32:02;;;;;;;17.43;9.83;;;9.20;99.90;;;;;;4147927;28;20516;-78
2021/10/26 07:34:04;;;;;;;17.00;9.10;;;9.20;99.90;;;;;;4147221;28;20498;-79
2021/10/26 07:36:10;;;;;;;14.40;8.50;;;9.20;99.90;;;;;;4149489;28;20482;-78
2021/10/26 07:38:14;;;;;;;13.37;7.57;;;9.20;99.90;;;;;;4181402;28;20975;-78
2021/10/26 07:40:17;;;;;;;15.70;8.47;;;9.30;99.90;;;;;;4165590;28;20849;-77
2021/10/26 07:42:20;;;;;;;14.80;8.50;;;9.30;99.90;;;;;;4164990;28;20246;-78
2021/10/26 07:44:22;;;;;;;13.90;8.70;;;9.30;99.90;;;;;;4171573;28;20215;-78
2021/10/26 07:46:23;;;;;;;13.73;7.70;;;9.30;99.90;;;;;;4175160;28;20234;-78
2021/10/26 07:48:25;;;;;;;14.23;8.63;;;9.40;99.90;;;;;;4173881;28;20848;-78
2021/10/26 07:50:27;;;;;;;18.60;8.77;;;9.40;99.90;;;;;;4176136;28;20249;-77
2021/10/26 07:52:30;;;;;;;14.30;8.40;;;9.50;99.90;;;;;;4175691;28;20231;-78
2021/10/26 07:54:32;;;;;;;15.20;8.57;;;9.50;99.90;;;;;;4169161;28;20450;-79
2021/10/26 07:56:33;;;;;;;14.47;8.70;;;9.60;99.90;;;;;;4162364;28;20979;-78
2021/10/26 07:58:39;;;;;;;14.47;9.07;;;9.60;99.90;;;;;;4162797;28;20215;-78
2021/10/26 08:00:40;;;;;;;15.57;8.30;;;9.70;99.90;;;;;;4164021;28;20312;-80
2021/10/26 08:02:43;;;;;;;16.30;8.10;;;9.70;99.90;;;;;;4163781;28;20237;-79
2021/10/26 08:04:47;;;;;;;14.70;8.97;;;9.80;99.90;;;;;;4177172;28;20393;-78
2021/10/26 08:06:49;;;;;;;16.77;7.73;;;9.80;99.90;;;;;;4169588;28;20207;-79
2021/10/26 08:08:52;;;;;;;13.00;8.20;;;9.90;99.90;;;;;;4158632;28;20264;-79
2021/10/26 08:10:54;;;;;;;17.27;8.67;;;10.00;99.90;;;;;;4162992;28;20204;-79
2021/10/26 08:12:57;;;;;;;14.60;8.67;;;10.00;99.90;;;;;;4169943;28;20584;-79
2021/10/26 08:14:59;;;;;;;15.27;8.70;;;10.10;99.90;;;;;;4161180;28;20599;-77
2021/10/26 08:17:00;;;;;;;14.43;8.53;;;10.20;99.90;;;;;;4160269;28;20806;-78
2021/10/26 08:19:03;;;;;;;16.33;9.10;;;10.20;99.90;;;;;;4161100;28;20688;-79
2021/10/26 08:21:05;;;;;;;15.83;8.87;;;10.20;99.90;;;;;;4158462;28;20215;-79
2021/10/26 08:23:07;;;;;;;13.87;8.40;;;10.30;99.90;;;;;;4161206;28;20231;-79
2021/10/26 08:25:14;;;;;;;13.73;8.37;;;10.30;99.90;;;;;;4168088;28;20720;-78
2021/10/26 08:27:17;;;;;;;13.30;8.07;;;10.40;99.90;;;;;;4163477;28;20290;-78
2021/10/26 08:29:30;;;;;;;13.93;8.43;;;10.40;99.90;;;;;;4168615;28;20708;-78
2021/10/26 08:31:39;;;;;;;17.30;9.37;;;10.50;99.90;;;;;;4173782;28;20235;-80
2021/10/26 08:33:53;;;;;;;17.63;8.77;;;10.60;99.90;;;;;;4167446;28;20207;-78
2021/10/26 08:35:55;;;;;;;14.33;9.10;;;10.60;99.90;;;;;;4160043;28;20224;-78
2021/10/26 08:38:00;;;;;;;12.97;8.43;;;10.70;99.90;;;;;;4171520;28;20207;-79
2021/10/26 08:40:02;;;;;;;12.73;7.90;;;10.80;99.90;;;;;;4177203;28;20241;-79
2021/10/26 08:42:07;;;;;;;12.87;7.83;;;10.80;99.90;;;;;;4170469;28;20326;-80
2021/10/26 08:44:09;;;;;;;18.27;8.77;;;10.90;99.90;;;;;;4160636;28;20639;-78
2021/10/26 08:46:12;;;;;;;13.47;8.27;;;11.00;99.90;;;;;;4163146;28;20228;-79
2021/10/26 08:48:20;;;;;;;12.33;8.20;;;11.10;99.90;;;;;;4175964;28;20218;-78
2021/10/26 08:50:23;;;;;;;14.97;8.20;;;11.20;99.90;;;;;;4176501;28;20281;-79
2021/10/26 08:52:25;;;;;;;16.27;8.10;;;11.30;99.90;;;;;;4156061;28;20692;-79
2021/10/26 08:54:28;;;;;;;13.53;7.70;;;11.40;99.90;;;;;;4163137;28;20670;-79
2021/10/26 08:56:29;;;;;;;14.03;8.27;;;11.50;99.90;;;;;;4162368;28;20315;-79
2021/10/26 08:58:34;;;;;;;12.50;7.37;;;11.50;99.90;;;;;;4156301;28;20232;-79
2021/10/26 09:00:37;;;;;;;12.00;6.90;;;11.50;99.90;;;;;;4176148;28;20220;-78
2021/10/26 09:02:43;;;;;;;11.20;7.27;;;11.60;99.90;;;;;;4193732;28;20341;-79
2021/10/26 09:04:45;;;;;;;12.40;7.27;;;11.60;99.90;;;;;;4180760;28;20248;-78
2021/10/26 09:06:49;;;;;;;12.53;7.20;;;11.70;99.90;;;;;;4175716;28;20713;-78
2021/10/26 09:08:53;;;;;;;11.23;7.10;;;11.70;99.90;;;;;;4174411;28;20217;-77
2021/10/26 09:10:58;;;;;;;13.87;7.07;;;11.80;99.90;;;;;;4172887;28;20240;-78
2021/10/26 09:17:51;;;;;;;10.80;7.27;;;12.00;99.90;;;;;;4164652;28;20221;-78
2021/10/26 09:19:55;;;;;;;10.03;6.90;;;12.00;99.90;;;;;;4163064;28;20264;-78
2021/10/26 09:21:59;;;;;;;11.97;7.00;;;12.10;99.90;;;;;;4173876;28;20672;-78
2021/10/26 09:24:07;;;;;;;9.77;6.53;;;12.10;99.90;;;;;;4152667;28;20223;-78
2021/10/26 09:26:09;;;;;;;11.07;6.60;;;12.20;99.90;;;;;;4174744;28;20221;-78
2021/10/26 09:28:13;;;;;;;9.47;6.30;;;12.20;99.90;;;;;;4180705;28;20225;-78
2021/10/26 09:30:18;;;;;;;10.83;6.63;;;12.20;99.90;;;;;;4177883;28;21216;-80
2021/10/26 09:32:25;;;;;;;13.10;7.60;;;12.30;99.90;;;;;;4160004;28;20234;-79
2021/10/26 09:34:26;;;;;;;12.83;8.27;;;12.30;99.90;;;;;;4164756;28;20218;-79
2021/10/26 09:36:30;;;;;;;13.97;7.10;;;12.30;99.90;;;;;;4164025;28;20694;-79
2021/10/26 09:38:32;;;;;;;16.03;8.23;;;12.40;99.90;;;;;;4170605;28;20214;-80
2021/10/26 09:40:42;;;;;;;16.30;8.20;;;12.40;99.90;;;;;;4173049;28;21057;-79
2021/10/26 09:42:45;;;;;;;11.67;6.73;;;12.50;99.90;;;;;;4178260;28;20230;-79
2021/10/26 09:44:49;;;;;;;11.53;6.93;;;12.60;99.90;;;;;;4182017;28;20214;-79
2021/10/26 09:46:54;;;;;;;10.87;6.80;;;12.60;99.90;;;;;;4162616;28;20219;-79
2021/10/26 09:48:57;;;;;;;11.20;6.40;;;12.80;99.90;;;;;;4161638;28;20240;-79
2021/10/26 09:51:08;;;;;;;12.53;6.80;;;12.70;99.90;;;;;;4168022;28;20229;-79
2021/10/26 09:53:12;;;;;;;9.80;6.33;;;12.70;99.90;;;;;;4172256;28;20208;-79
2021/10/26 09:55:18;;;;;;;12.33;6.57;;;12.80;99.90;;;;;;4167283;28;20215;-78
2021/10/26 09:57:20;;;;;;;10.70;6.57;;;12.80;99.90;;;;;;4169222;28;20203;-78
2021/10/26 09:59:22;;;;;;;13.43;6.70;;;12.80;99.90;;;;;;4167666;28;20294;-78
2021/10/26 10:01:26;;;;;;;10.90;6.73;;;12.90;99.90;;;;;;4177998;28;20233;-79
2021/10/26 10:03:28;;;;;;;10.83;6.37;;;12.90;99.90;;;;;;4180176;28;20333;-78
2021/10/26 10:05:33;;;;;;;15.50;6.63;;;12.90;99.90;;;;;;4179222;28;20230;-79
2021/10/26 10:07:36;;;;;;;9.47;6.20;;;13.00;99.90;;;;;;4169429;28;20214;-79
2021/10/26 10:09:38;;;;;;;11.10;6.53;;;13.00;99.90;;;;;;4162355;28;20217;-78
2021/10/26 10:12:02;;;;;;;10.90;6.50;;;13.10;99.90;;;;;;4160256;28;20646;-80
2021/10/26 10:14:04;;;;;;;13.07;7.37;;;13.10;99.90;;;;;;4157162;28;20264;-79
2021/10/26 10:16:08;;;;;;;11.63;6.77;;;13.20;99.90;;;;;;4172226;28;20264;-79
2021/10/26 10:18:11;;;;;;;12.93;7.40;;;13.30;99.90;;;;;;4164489;28;20318;-79
2021/10/26 10:20:14;;;;;;;11.97;6.40;;;13.40;99.90;;;;;;4162211;28;20210;-79
2021/10/26 10:22:23;;;;;;;9.43;5.87;;;13.40;99.90;;;;;;4161383;28;20234;-80
2021/10/26 10:24:28;;;;;;;10.70;6.20;;;13.40;99.90;;;;;;4175687;28;20214;-80
2021/10/26 10:26:31;;;;;;;8.33;5.60;;;13.50;99.90;;;;;;4173007;28;20212;-79
2021/10/26 10:28:34;;;;;;;10.53;5.87;;;13.60;99.90;;;;;;4188410;28;20222;-78
2021/10/26 10:30:36;;;;;;;9.53;5.70;;;13.70;99.90;;;;;;4176874;28;20308;-79
2021/10/26 10:32:40;;;;;;;8.63;5.57;;;13.80;99.90;;;;;;4169248;28;20317;-78
2021/10/26 10:34:44;;;;;;;9.63;5.40;;;13.90;99.90;;;;;;4165995;28;20241;-79
2021/10/26 10:36:47;;;;;;;8.13;5.43;;;14.10;99.90;;;;;;4162601;28;20514;-80
2021/10/26 10:38:52;;;;;;;9.33;5.30;;;14.20;99.90;;;;;;4161416;28;20277;-79
2021/10/26 10:41:21;;;;;;;7.43;4.93;;;14.30;99.90;;;;;;4163389;28;20247;-77
2021/10/26 10:43:34;;;;;;;8.27;5.07;;;14.40;99.90;;;;;;4163601;28;20240;-78